createdAt,value
2023-03-06T00:02:38.416Z,98306.13
2023-03-06T00:05:41.315Z,98295.91
2023-03-06T00:08:44.122Z,98294.19
2023-03-06T00:11:46.873Z,98290.50
2023-03-06T00:14:49.683Z,98287.06
2023-03-06T00:17:54.198Z,98292.59
2023-03-06T00:20:57.055Z,98289.47
2023-03-06T00:23:59.884Z,98296.47
2023-03-06T00:27:02.695Z,98290.50
2023-03-06T00:30:05.974Z,98295.47
2023-03-06T00:33:10.116Z,98291.88
2023-03-06T00:36:12.933Z,98297.50
2023-03-06T00:39:15.768Z,98296.19
2023-03-06T00:42:18.888Z,98305.94
2023-03-06T00:45:21.961Z,98298.13
2023-03-06T00:48:26.211Z,98303.47
2023-03-06T00:51:29.077Z,98294.34
2023-03-06T00:54:31.847Z,98293.50
2023-03-06T00:57:34.657Z,98295.44
2023-03-06T01:00:37.496Z,98300.78
2023-03-06T01:03:41.706Z,98298.78
2023-03-06T01:06:44.565Z,98298.16
2023-03-06T01:09:47.325Z,98288.19
2023-03-06T01:12:50.128Z,98299.50
2023-03-06T01:15:53.007Z,98300.34
2023-03-06T01:18:57.218Z,98293.88
2023-03-06T01:22:00.014Z,98294.91
2023-03-06T01:25:02.851Z,98291.78
2023-03-06T01:28:05.704Z,98299.78
2023-03-06T01:31:09.071Z,98300.31
2023-03-06T01:34:13.261Z,98304.00
2023-03-06T01:37:16.118Z,98301.22
2023-03-06T01:40:18.893Z,98298.34
2023-03-06T01:43:28.846Z,98297.22
2023-03-06T01:46:34.489Z,98298.25
2023-03-06T01:49:39.810Z,98310.09
2023-03-06T01:52:47.393Z,98307.13
2023-03-06T01:55:50.457Z,98313.31
2023-03-06T01:58:54.114Z,98310.19
2023-03-06T02:01:57.727Z,98304.84
2023-03-06T02:05:05.575Z,98304.16
2023-03-06T02:08:09.078Z,98308.03
2023-03-06T02:11:14.060Z,98308.41
2023-03-06T02:14:18.289Z,98299.38
2023-03-06T02:17:22.064Z,98309.38
2023-03-06T02:20:27.833Z,98299.06
2023-03-06T02:23:33.301Z,98304.78
2023-03-06T02:26:37.782Z,98296.09
2023-03-06T02:29:41.343Z,98300.28
2023-03-06T02:32:44.153Z,98297.47
2023-03-06T02:35:48.391Z,98302.31
2023-03-06T02:38:52.273Z,98302.69
2023-03-06T02:41:57.472Z,98298.38
2023-03-06T02:45:01.887Z,98304.69
2023-03-06T02:48:04.884Z,98295.22
2023-03-06T02:51:07.624Z,98298.88
2023-03-06T02:54:11.057Z,98298.06
2023-03-06T02:57:15.168Z,98298.38
2023-03-06T03:00:19.709Z,98302.75
2023-03-06T03:03:22.416Z,98297.69
2023-03-06T03:06:25.248Z,98287.50
2023-03-06T03:09:31.236Z,98293.31
2023-03-06T03:12:35.543Z,98290.59
2023-03-06T03:15:38.367Z,98294.50
2023-03-06T03:18:41.191Z,98291.06
2023-03-06T03:21:43.959Z,98287.34
2023-03-06T03:24:46.789Z,98293.66
2023-03-06T03:27:51.024Z,98290.47
2023-03-06T03:30:53.769Z,98292.03
2023-03-06T03:33:56.548Z,98292.22
2023-03-06T03:36:59.415Z,98284.31
2023-03-06T03:40:02.279Z,98291.16
2023-03-06T03:43:06.402Z,98283.97
2023-03-06T03:46:11.462Z,98280.09
2023-03-06T03:49:14.842Z,98276.22
2023-03-06T03:52:17.566Z,98274.56
2023-03-06T03:55:22.775Z,98270.88
2023-03-06T03:58:26.945Z,98271.72
2023-03-06T04:01:29.772Z,98268.59
2023-03-06T04:04:32.794Z,98276.56
2023-03-06T04:07:35.672Z,98271.22
2023-03-06T04:10:50.030Z,98278.41
2023-03-06T04:13:54.169Z,98274.63
2023-03-06T04:16:56.995Z,98290.19
2023-03-06T04:19:59.733Z,98278.94
2023-03-06T04:23:05.166Z,98277.97
2023-03-06T04:26:10.155Z,98286.50
2023-03-06T04:29:14.312Z,98292.31
2023-03-06T04:32:17.575Z,98291.97
2023-03-06T04:35:21.542Z,98299.78
2023-03-06T04:38:24.453Z,98304.47
2023-03-06T04:41:27.333Z,98306.88
2023-03-06T04:44:34.643Z,98313.78
2023-03-06T04:47:37.460Z,98304.22
2023-03-06T04:50:40.208Z,98294.84
2023-03-06T04:53:43.234Z,98300.25
2023-03-06T04:56:45.990Z,98294.19
2023-03-06T04:59:50.727Z,98301.81
2023-03-06T05:02:53.537Z,98298.69
2023-03-06T05:05:56.478Z,98307.16
2023-03-06T05:08:59.307Z,98311.28
2023-03-06T05:12:02.192Z,98311.28
2023-03-06T05:15:07.071Z,98307.25
2023-03-06T05:18:09.925Z,98312.84
2023-03-06T05:21:13.702Z,98307.25
2023-03-06T05:24:16.551Z,98298.94
2023-03-06T05:27:19.357Z,98303.25
2023-03-06T05:30:23.737Z,98306.31
2023-03-06T05:33:27.044Z,98322.81
2023-03-06T05:36:29.838Z,98311.66
2023-03-06T05:39:32.649Z,98320.88
2023-03-06T05:42:35.380Z,98319.59
2023-03-06T05:45:39.696Z,98313.59
2023-03-06T05:48:42.528Z,98319.47
2023-03-06T05:51:45.298Z,98318.47
2023-03-06T05:54:50.803Z,98326.34
2023-03-06T05:57:54.399Z,98330.50
2023-03-06T06:01:00.316Z,98336.31
2023-03-06T06:04:03.112Z,98342.56
2023-03-06T06:07:06.741Z,98341.44
2023-03-06T06:10:13.240Z,98343.38
2023-03-06T06:13:16.088Z,98344.75
2023-03-06T06:16:20.253Z,98354.66
2023-03-06T06:19:25.312Z,98361.81
2023-03-06T06:22:28.121Z,98356.00
2023-03-06T06:25:30.877Z,98357.53
2023-03-06T06:28:33.967Z,98345.06
2023-03-06T06:31:38.519Z,98358.06
2023-03-06T06:34:41.302Z,98357.41
2023-03-06T06:37:44.096Z,98360.44
2023-03-06T06:41:04.317Z,98365.78
2023-03-06T06:44:11.331Z,98353.44
2023-03-06T06:47:23.085Z,98358.13
2023-03-06T06:50:27.189Z,98356.81
2023-03-06T06:53:29.979Z,98355.47
2023-03-06T06:56:32.766Z,98349.16
2023-03-06T06:59:35.561Z,98367.34
2023-03-06T07:02:43.758Z,98367.16
2023-03-06T07:05:54.780Z,98370.19
2023-03-06T07:08:57.593Z,98372.38
2023-03-06T07:12:00.323Z,98375.03
2023-03-06T07:15:03.488Z,98367.41
2023-03-06T07:18:07.678Z,98372.72
2023-03-06T07:21:11.733Z,98374.25
2023-03-06T07:24:14.517Z,98372.56
2023-03-06T07:27:17.480Z,98376.91
2023-03-06T07:30:20.446Z,98374.25
2023-03-06T07:33:24.593Z,98376.25
2023-03-06T07:36:27.334Z,98374.06
2023-03-06T07:39:30.459Z,98376.94
2023-03-06T07:42:33.210Z,98389.44
2023-03-06T07:45:36.163Z,98383.44
2023-03-06T07:48:40.362Z,98398.44
2023-03-06T07:51:43.132Z,98392.41
2023-03-06T07:54:45.870Z,98386.44
2023-03-06T07:57:52.740Z,98393.59
2023-03-06T08:00:55.603Z,98388.63
2023-03-06T08:04:02.132Z,98396.78
2023-03-06T08:07:05.068Z,98403.31
2023-03-06T08:10:08.237Z,98402.47
2023-03-06T08:13:11.027Z,98410.66
2023-03-06T08:16:15.620Z,98401.97
2023-03-06T08:19:21.147Z,98403.81
2023-03-06T08:22:23.947Z,98396.81
2023-03-06T08:25:26.781Z,98395.81
2023-03-06T08:28:29.707Z,98399.84
2023-03-06T08:31:33.747Z,98403.97
2023-03-06T08:34:40.001Z,98409.31
2023-03-06T08:37:42.926Z,98407.00
2023-03-06T08:40:48.545Z,98405.50
2023-03-06T08:43:51.694Z,98411.66
2023-03-06T08:46:56.918Z,98419.81
2023-03-06T08:50:01.220Z,98419.81
2023-03-06T08:53:05.590Z,98419.81
2023-03-06T08:56:09.088Z,98408.34
2023-03-06T08:59:13.481Z,98404.50
2023-03-06T09:02:17.583Z,98411.19
2023-03-06T09:05:22.028Z,98409.81
2023-03-06T09:08:24.856Z,98417.28
2023-03-06T09:11:28.145Z,98408.28
2023-03-06T09:14:31.966Z,98412.09
2023-03-06T09:17:34.746Z,98420.50
2023-03-06T09:20:38.999Z,98418.94
2023-03-06T09:23:41.848Z,98422.94
2023-03-06T09:26:46.745Z,98419.91
2023-03-06T09:29:50.430Z,98419.22
2023-03-06T09:32:53.196Z,98415.84
2023-03-06T09:35:59.018Z,98410.81
2023-03-06T09:39:01.916Z,98409.09
2023-03-06T09:42:07.138Z,98405.94
2023-03-06T09:45:13.145Z,98408.78
2023-03-06T09:48:16.948Z,98399.56
2023-03-06T09:51:26.418Z,98400.41
2023-03-06T09:54:37.316Z,98402.16
2023-03-06T09:57:44.211Z,98392.66
2023-03-06T10:00:51.754Z,98385.66
2023-03-06T10:03:56.050Z,98387.16
2023-03-06T10:07:02.442Z,98385.59
2023-03-06T10:10:07.259Z,98377.25
2023-03-06T10:13:16.516Z,98376.41
2023-03-06T10:16:27.502Z,98367.84
2023-03-06T10:19:34.249Z,98373.91
2023-03-06T10:22:40.373Z,98366.91
2023-03-06T10:25:47.595Z,98376.31
2023-03-06T10:28:54.895Z,98359.34
2023-03-06T10:32:01.038Z,98359.81
2023-03-06T10:35:11.976Z,98368.47
2023-03-06T10:38:19.497Z,98366.16
2023-03-06T10:41:26.435Z,98369.72
2023-03-06T10:44:29.209Z,98358.91
2023-03-06T10:47:35.318Z,98365.63
2023-03-06T10:50:40.311Z,98352.56
2023-03-06T10:53:51.593Z,98356.50
2023-03-06T10:56:54.389Z,98350.09
2023-03-06T10:59:58.218Z,98346.66
2023-03-06T11:03:09.532Z,98351.84
2023-03-06T11:06:13.548Z,98348.13
2023-03-06T11:09:23.097Z,98348.06
2023-03-06T11:12:27.328Z,98356.41
2023-03-06T11:15:30.821Z,98345.84
2023-03-06T11:18:36.767Z,98343.19
2023-03-06T11:21:40.328Z,98347.88
2023-03-06T11:24:45.646Z,98345.53
2023-03-06T11:27:53.023Z,98350.63
2023-03-06T11:30:57.390Z,98358.63
2023-03-06T11:34:03.502Z,98351.31
2023-03-06T11:37:09.201Z,98366.84
2023-03-06T11:40:18.716Z,98362.72
2023-03-06T11:43:23.454Z,98365.72
2023-03-06T11:46:29.085Z,98363.59
2023-03-06T11:49:35.000Z,98367.44
2023-03-06T11:52:43.610Z,98368.81
2023-03-06T11:55:54.906Z,98375.16
2023-03-06T11:59:02.046Z,98365.84
2023-03-06T12:02:11.460Z,98375.22
2023-03-06T12:05:26.251Z,98377.91
2023-03-06T12:08:44.860Z,98375.75
2023-03-06T12:11:54.724Z,98383.09
2023-03-06T12:15:14.758Z,98383.63
2023-03-06T12:18:27.729Z,98388.13
2023-03-06T12:21:35.037Z,98397.66
2023-03-06T12:24:48.226Z,98405.66
2023-03-06T12:28:00.556Z,98397.00
2023-03-06T12:31:14.571Z,98405.19
2023-03-06T12:34:26.097Z,98408.38
2023-03-06T12:37:33.776Z,98418.84
2023-03-06T12:40:55.466Z,98418.38
2023-03-06T12:44:19.249Z,98418.72
2023-03-06T12:47:26.202Z,98415.59
2023-03-06T12:50:30.893Z,98416.06
2023-03-06T12:53:35.397Z,98418.25
2023-03-06T12:56:42.550Z,98425.56
2023-03-06T12:59:47.984Z,98430.06
2023-03-06T13:03:01.145Z,98430.41
2023-03-06T13:06:13.107Z,98436.06
2023-03-06T13:09:19.194Z,98433.06
2023-03-06T13:12:30.348Z,98438.06
2023-03-06T13:15:41.931Z,98439.53
2023-03-06T13:18:53.048Z,98438.06
2023-03-06T13:22:04.828Z,98441.09
2023-03-06T13:25:28.479Z,98453.94
2023-03-06T13:28:40.996Z,98459.72
2023-03-06T13:31:58.593Z,98476.09
2023-03-06T13:35:02.787Z,98479.06
2023-03-06T13:38:05.885Z,98482.53
2023-03-06T13:41:28.768Z,98485.47
2023-03-06T13:44:42.624Z,98478.94
2023-03-06T13:48:19.569Z,98488.09
2023-03-06T13:51:24.651Z,98488.88
2023-03-06T13:54:33.754Z,98497.19
2023-03-06T13:57:45.721Z,98500.69
2023-03-06T14:00:58.328Z,98501.47
2023-03-06T14:04:20.208Z,98499.31
2023-03-06T14:07:28.778Z,98505.16
2023-03-06T14:10:34.615Z,98501.25
2023-03-06T14:13:47.250Z,98501.56
2023-03-06T14:16:51.565Z,98512.00
2023-03-06T14:19:54.534Z,98500.81
2023-03-06T14:23:12.165Z,98508.50
2023-03-06T14:26:18.303Z,98498.78
2023-03-06T14:29:22.983Z,98504.38
2023-03-06T14:32:25.939Z,98502.31
2023-03-06T14:35:30.021Z,98512.38
2023-03-06T14:38:35.629Z,98511.94
2023-03-06T14:41:40.116Z,98514.41
2023-03-06T14:44:42.919Z,98518.94
2023-03-06T14:47:52.736Z,98527.63
2023-03-06T14:50:58.613Z,98523.69
2023-03-06T14:54:03.929Z,98528.72
2023-03-06T14:57:12.749Z,98535.56
2023-03-06T15:00:20.035Z,98535.06
2023-03-06T15:03:25.636Z,98542.09
2023-03-06T15:06:30.436Z,98538.44
2023-03-06T15:09:34.419Z,98547.75
2023-03-06T15:12:39.532Z,98555.94
2023-03-06T15:15:44.244Z,98558.63
2023-03-06T15:18:56.018Z,98557.97
2023-03-06T15:21:58.797Z,98554.81
2023-03-06T15:25:18.426Z,98566.81
2023-03-06T15:28:32.567Z,98574.16
2023-03-06T15:31:35.993Z,98573.53
2023-03-06T15:34:38.864Z,98571.78
2023-03-06T15:37:41.594Z,98580.19
2023-03-06T15:40:54.705Z,98584.34
2023-03-06T15:43:59.691Z,98575.72
2023-03-06T15:47:08.785Z,98594.59
2023-03-06T15:50:16.836Z,98597.13
2023-03-06T15:53:20.374Z,98598.78
2023-03-06T15:56:26.207Z,98600.81
2023-03-06T15:59:33.330Z,98602.47
2023-03-06T16:02:36.179Z,98598.78
2023-03-06T16:05:39.194Z,98615.13
2023-03-06T16:08:41.997Z,98613.63
2023-03-06T16:11:45.397Z,98625.97
2023-03-06T16:14:50.232Z,98621.44
2023-03-06T16:17:53.195Z,98626.28
2023-03-06T16:20:56.174Z,98635.19
2023-03-06T16:23:58.992Z,98635.38
2023-03-06T16:27:05.089Z,98635.38
2023-03-06T16:30:13.230Z,98647.22
2023-03-06T16:33:16.086Z,98640.41
2023-03-06T16:36:23.071Z,98651.47
2023-03-06T16:39:25.901Z,98650.00
2023-03-06T16:42:30.765Z,98649.53
2023-03-06T16:45:36.541Z,98657.53
2023-03-06T16:48:39.288Z,98653.72
2023-03-06T16:51:42.030Z,98659.09
2023-03-06T16:54:44.905Z,98670.28
2023-03-06T16:57:47.702Z,98669.78
2023-03-06T17:00:52.301Z,98669.63
2023-03-06T17:03:57.511Z,98665.47
2023-03-06T17:07:00.360Z,98672.63
2023-03-06T17:10:03.216Z,98673.97
2023-03-06T17:13:08.571Z,98673.69
2023-03-06T17:16:16.133Z,98676.34
2023-03-06T17:19:19.011Z,98672.16
2023-03-06T17:22:24.342Z,98678.03
2023-03-06T17:25:27.238Z,98670.34
2023-03-06T17:28:32.019Z,98681.38
2023-03-06T17:31:36.292Z,98688.72
2023-03-06T17:34:39.623Z,98684.06
2023-03-06T17:37:42.427Z,98688.22
2023-03-06T17:40:46.797Z,98686.06
2023-03-06T17:43:49.597Z,98696.09
2023-03-06T17:46:53.848Z,98686.72
2023-03-06T17:49:56.640Z,98694.09
2023-03-06T17:52:59.465Z,98697.09
2023-03-06T17:56:04.617Z,98700.94
2023-03-06T17:59:07.472Z,98702.09
2023-03-06T18:02:12.515Z,98705.94
2023-03-06T18:05:15.763Z,98701.78
2023-03-06T18:08:20.043Z,98702.78
2023-03-06T18:11:23.128Z,98713.63
2023-03-06T18:14:25.903Z,98713.09
2023-03-06T18:17:30.070Z,98712.28
2023-03-06T18:20:35.533Z,98723.94
2023-03-06T18:23:38.922Z,98717.13
2023-03-06T18:26:42.662Z,98726.59
2023-03-06T18:29:47.181Z,98721.78
2023-03-06T18:32:51.423Z,98718.94
2023-03-06T18:35:54.247Z,98723.28
2023-03-06T18:38:57.143Z,98726.78
2023-03-06T18:42:03.206Z,98712.75
2023-03-06T18:45:06.477Z,98732.25
2023-03-06T18:48:10.760Z,98732.72
2023-03-06T18:51:14.073Z,98728.06
2023-03-06T18:54:16.900Z,98725.69
2023-03-06T18:57:22.007Z,98735.25
2023-03-06T19:00:25.593Z,98733.25
2023-03-06T19:03:33.168Z,98736.41
2023-03-06T19:06:38.021Z,98734.41
2023-03-06T19:09:40.921Z,98728.06
2023-03-06T19:12:43.712Z,98733.72
2023-03-06T19:15:46.985Z,98737.38
2023-03-06T19:18:51.362Z,98738.91
2023-03-06T19:21:54.147Z,98745.41
2023-03-06T19:24:57.036Z,98748.59
2023-03-06T19:28:01.942Z,98745.91
2023-03-06T19:31:08.969Z,98741.09
2023-03-06T19:34:13.061Z,98748.59
2023-03-06T19:37:15.834Z,98742.09
2023-03-06T19:40:18.757Z,98737.63
2023-03-06T19:43:22.857Z,98748.13
2023-03-06T19:46:26.420Z,98738.78
2023-03-06T19:49:30.628Z,98742.94
2023-03-06T19:52:36.494Z,98748.81
2023-03-06T19:55:39.989Z,98746.81
2023-03-06T19:58:45.619Z,98752.31
2023-03-06T20:01:51.290Z,98740.78
2023-03-06T20:05:00.033Z,98737.63
2023-03-06T20:08:04.296Z,98733.28
2023-03-06T20:11:07.110Z,98728.97
2023-03-06T20:14:10.154Z,98732.44
2023-03-06T20:17:12.969Z,98737.81
2023-03-06T20:20:17.383Z,98738.94
2023-03-06T20:23:20.119Z,98733.78
2023-03-06T20:26:22.955Z,98728.81
2023-03-06T20:29:28.126Z,98732.63
2023-03-06T20:32:31.237Z,98737.28
2023-03-06T20:35:35.454Z,98731.44
2023-03-06T20:38:40.819Z,98731.94
2023-03-06T20:41:44.442Z,98729.44
2023-03-06T20:44:47.274Z,98730.44
2023-03-06T20:47:50.021Z,98726.59
2023-03-06T20:51:01.361Z,98718.44
2023-03-06T20:54:04.307Z,98716.09
2023-03-06T20:57:07.124Z,98721.59
2023-03-06T21:00:11.930Z,98724.91
2023-03-06T21:03:17.554Z,98726.91
2023-03-06T21:06:22.279Z,98721.91
2023-03-06T21:09:25.154Z,98715.53
2023-03-06T21:12:27.935Z,98712.69
2023-03-06T21:15:31.118Z,98700.53
2023-03-06T21:18:33.866Z,98704.50
2023-03-06T21:21:38.073Z,98700.84
2023-03-06T21:24:40.924Z,98706.03
2023-03-06T21:27:43.853Z,98712.38
2023-03-06T21:30:46.827Z,98716.69
2023-03-06T21:33:50.268Z,98709.00
2023-03-06T21:36:54.456Z,98707.47
2023-03-06T21:39:59.544Z,98717.50
2023-03-06T21:43:03.545Z,98713.81
2023-03-06T21:46:06.789Z,98712.34
2023-03-06T21:49:09.675Z,98720.19
2023-03-06T21:52:13.796Z,98730.34
2023-03-06T21:55:18.481Z,98724.19
2023-03-06T21:58:21.296Z,98726.13
2023-03-06T22:01:25.288Z,98729.81
2023-03-06T22:04:28.067Z,98719.09
2023-03-06T22:07:35.011Z,98726.78
2023-03-06T22:10:39.318Z,98724.75
2023-03-06T22:13:45.640Z,98715.59
2023-03-06T22:16:48.519Z,98718.78
2023-03-06T22:19:51.338Z,98721.63
2023-03-06T22:22:55.533Z,98712.78
2023-03-06T22:26:02.228Z,98722.59
2023-03-06T22:29:05.029Z,98723.09
2023-03-06T22:32:08.202Z,98727.63
2023-03-06T22:35:11.155Z,98730.59
2023-03-06T22:38:16.044Z,98718.94
2023-03-06T22:41:21.073Z,98717.28
2023-03-06T22:44:25.401Z,98725.59
2023-03-06T22:47:30.091Z,98732.81
2023-03-06T22:50:34.438Z,98738.13
2023-03-06T22:53:38.599Z,98736.28
2023-03-06T22:56:41.997Z,98738.66
2023-03-06T22:59:47.178Z,98732.59
2023-03-06T23:02:52.131Z,98733.09
2023-03-06T23:05:54.972Z,98735.13
2023-03-06T23:09:00.011Z,98744.25
2023-03-06T23:12:02.737Z,98733.88
2023-03-06T23:15:05.789Z,98723.88
2023-03-06T23:18:08.709Z,98730.91
2023-03-06T23:21:13.023Z,98724.41
2023-03-06T23:24:17.286Z,98720.88
2023-03-06T23:27:20.501Z,98726.53
2023-03-06T23:30:23.272Z,98719.38
2023-03-06T23:33:26.147Z,98712.50
2023-03-06T23:36:29.421Z,98704.31
2023-03-06T23:39:33.756Z,98702.66
2023-03-06T23:42:36.566Z,98711.34
2023-03-06T23:45:39.358Z,98712.00
2023-03-06T23:48:43.060Z,98695.63
2023-03-06T23:51:45.827Z,98704.03
2023-03-06T23:54:50.901Z,98704.16
2023-03-06T23:57:53.643Z,98695.81
